createdAt,value
2023-05-21T00:01:19.873Z,18.86
2023-05-21T00:04:22.762Z,18.87
2023-05-21T00:07:25.541Z,18.88
2023-05-21T00:10:28.233Z,18.88
2023-05-21T00:13:30.816Z,18.86
2023-05-21T00:16:33.607Z,18.88
2023-05-21T00:19:36.327Z,18.82
2023-05-21T00:22:40.331Z,18.80
2023-05-21T00:25:42.897Z,18.83
2023-05-21T00:28:45.462Z,18.78
2023-05-21T00:31:48.449Z,18.90
2023-05-21T00:34:51.060Z,18.77
2023-05-21T00:37:54.207Z,18.73
2023-05-21T00:40:56.845Z,18.67
2023-05-21T00:44:00.451Z,18.62
2023-05-21T00:47:03.727Z,18.62
2023-05-21T00:50:06.694Z,18.65
2023-05-21T00:53:12.587Z,18.60
2023-05-21T00:56:15.235Z,18.53
2023-05-21T00:59:17.911Z,18.51
2023-05-21T01:02:20.836Z,18.50
2023-05-21T01:05:23.650Z,18.46
2023-05-21T01:08:27.403Z,18.44
2023-05-21T01:11:41.314Z,18.52
2023-05-21T01:14:44.267Z,18.53
2023-05-21T01:17:47.122Z,18.47
2023-05-21T01:20:50.290Z,18.41
2023-05-21T01:23:52.947Z,18.38
2023-05-21T01:26:56.115Z,18.36
2023-05-21T01:29:59.525Z,18.36
2023-05-21T01:33:05.079Z,18.37
2023-05-21T01:36:28.071Z,18.36
2023-05-21T01:39:33.812Z,18.37
2023-05-21T01:42:37.377Z,18.35
2023-05-21T01:45:40.977Z,18.28
2023-05-21T01:48:44.126Z,18.23
2023-05-21T01:51:47.201Z,18.23
2023-05-21T01:54:51.149Z,18.20
2023-05-21T01:57:54.637Z,18.18
2023-05-21T02:00:57.274Z,18.14
2023-05-21T02:04:00.706Z,18.10
2023-05-21T02:07:03.213Z,18.09
2023-05-21T02:10:06.584Z,18.09
2023-05-21T02:13:08.960Z,18.06
2023-05-21T02:16:14.865Z,18.07
2023-05-21T02:19:17.634Z,18.04
2023-05-21T02:22:20.605Z,18.02
2023-05-21T02:25:22.964Z,17.96
2023-05-21T02:28:25.885Z,17.96
2023-05-21T02:31:28.191Z,17.94
2023-05-21T02:34:32.247Z,17.93
2023-05-21T02:37:35.591Z,17.90
2023-05-21T02:40:38.507Z,17.86
2023-05-21T02:43:41.100Z,17.91
2023-05-21T02:46:43.980Z,17.84
2023-05-21T02:49:47.510Z,17.80
2023-05-21T02:52:50.696Z,17.79
2023-05-21T02:55:53.481Z,17.78
2023-05-21T02:58:56.370Z,17.75
2023-05-21T03:01:58.718Z,17.75
2023-05-21T03:05:01.841Z,17.72
2023-05-21T03:08:04.246Z,17.73
2023-05-21T03:11:07.633Z,17.69
2023-05-21T03:14:10.021Z,17.66
2023-05-21T03:17:17.031Z,17.65
2023-05-21T03:20:19.491Z,17.65
2023-05-21T03:23:22.425Z,17.66
2023-05-21T03:26:27.413Z,17.66
2023-05-21T03:29:31.210Z,17.60
2023-05-21T03:32:38.026Z,17.62
2023-05-21T03:35:42.059Z,17.65
2023-05-21T03:38:44.518Z,17.63
2023-05-21T03:41:47.861Z,17.64
2023-05-21T03:44:51.034Z,17.67
2023-05-21T03:47:55.403Z,17.67
2023-05-21T03:50:57.845Z,17.67
2023-05-21T03:54:01.530Z,17.69
2023-05-21T03:57:04.236Z,17.75
2023-05-21T04:00:09.124Z,17.77
2023-05-21T04:03:18.346Z,17.79
2023-05-21T04:06:22.831Z,17.82
2023-05-21T04:09:25.421Z,17.84
2023-05-21T04:12:28.342Z,17.89
2023-05-21T04:15:30.712Z,17.93
2023-05-21T04:18:34.350Z,18.02
2023-05-21T04:21:37.197Z,18.09
2023-05-21T04:24:40.610Z,18.15
2023-05-21T04:27:43.661Z,18.22
2023-05-21T04:30:47.549Z,18.26
2023-05-21T04:33:50.732Z,18.26
2023-05-21T04:36:54.139Z,18.29
2023-05-21T04:39:57.592Z,18.27
2023-05-21T04:43:01.960Z,18.33
2023-05-21T04:46:04.726Z,18.38
2023-05-21T04:49:07.635Z,18.50
2023-05-21T04:52:10.573Z,18.49
2023-05-21T04:55:13.730Z,18.47
2023-05-21T04:58:18.436Z,18.43
2023-05-21T05:01:27.207Z,18.61
2023-05-21T05:04:29.744Z,18.62
2023-05-21T05:07:32.728Z,18.73
2023-05-21T05:10:35.281Z,18.64
2023-05-21T05:13:39.803Z,18.63
2023-05-21T05:16:43.899Z,19.06
2023-05-21T05:19:46.855Z,18.98
2023-05-21T05:22:49.241Z,19.09
2023-05-21T05:25:53.015Z,19.26
2023-05-21T05:28:55.408Z,19.41
2023-05-21T05:31:58.454Z,19.39
2023-05-21T05:35:02.596Z,19.53
2023-05-21T05:38:05.858Z,19.58
2023-05-21T05:41:08.273Z,19.82
2023-05-21T05:44:11.227Z,19.98
2023-05-21T05:47:13.695Z,20.17
2023-05-21T05:50:16.569Z,20.37
2023-05-21T05:53:18.929Z,20.32
2023-05-21T05:56:22.005Z,20.44
2023-05-21T05:59:24.463Z,20.64
2023-05-21T06:02:31.427Z,20.60
2023-05-21T06:05:35.530Z,20.69
2023-05-21T06:08:40.602Z,20.71
2023-05-21T06:11:43.368Z,20.78
2023-05-21T06:14:47.416Z,20.92
2023-05-21T06:17:50.117Z,21.06
2023-05-21T06:20:53.118Z,21.13
2023-05-21T06:23:56.398Z,21.25
2023-05-21T06:26:59.130Z,21.36
2023-05-21T06:30:01.930Z,21.62
2023-05-21T06:33:05.664Z,21.74
2023-05-21T06:36:08.453Z,21.72
2023-05-21T06:39:11.191Z,21.86
2023-05-21T06:42:14.303Z,21.95
2023-05-21T06:45:19.319Z,22.09
2023-05-21T06:48:22.162Z,22.28
2023-05-21T06:51:24.816Z,22.42
2023-05-21T06:54:27.451Z,22.57
2023-05-21T06:57:30.512Z,22.71
2023-05-21T07:00:33.163Z,22.81
2023-05-21T07:03:36.315Z,22.93
2023-05-21T07:06:39.228Z,23.12
2023-05-21T07:09:42.309Z,23.22
2023-05-21T07:12:45.218Z,23.33
2023-05-21T07:15:47.978Z,23.51
2023-05-21T07:18:50.911Z,23.57
2023-05-21T07:21:53.568Z,23.76
2023-05-21T07:24:56.278Z,23.85
2023-05-21T07:27:59.748Z,24.01
2023-05-21T07:31:02.897Z,24.17
2023-05-21T07:34:06.607Z,24.32
2023-05-21T07:37:09.393Z,24.60
2023-05-21T07:40:12.527Z,24.69
2023-05-21T07:43:15.569Z,25.00
2023-05-21T07:46:18.237Z,25.07
2023-05-21T07:49:21.296Z,25.23
2023-05-21T07:52:24.213Z,25.49
2023-05-21T07:55:26.872Z,25.77
2023-05-21T07:58:31.136Z,25.92
2023-05-21T08:01:34.506Z,26.02
2023-05-21T08:04:40.865Z,26.24
2023-05-21T08:07:44.148Z,26.43
2023-05-21T08:10:47.942Z,26.61
2023-05-21T08:13:50.946Z,26.91
2023-05-21T08:16:53.898Z,27.03
2023-05-21T08:19:56.959Z,27.22
2023-05-21T08:23:00.612Z,27.56
2023-05-21T08:26:04.006Z,27.75
2023-05-21T08:29:07.137Z,27.99
2023-05-21T08:32:10.146Z,28.19
2023-05-21T08:35:13.909Z,28.46
2023-05-21T08:38:17.700Z,28.62
2023-05-21T08:41:23.427Z,28.94
2023-05-21T08:44:28.466Z,29.31
2023-05-21T08:47:33.189Z,29.60
2023-05-21T08:50:35.847Z,29.93
2023-05-21T08:53:39.762Z,30.06
2023-05-21T08:56:47.063Z,30.20
2023-05-21T08:59:52.484Z,30.51
2023-05-21T09:02:57.187Z,30.85
2023-05-21T09:06:00.863Z,31.13
2023-05-21T09:09:06.825Z,31.31
2023-05-21T09:12:11.071Z,31.57
2023-05-21T09:15:13.435Z,31.75
2023-05-21T09:18:16.837Z,31.87
2023-05-21T09:21:23.935Z,32.11
2023-05-21T09:24:30.480Z,32.25
2023-05-21T09:27:35.349Z,32.53
2023-05-21T09:30:43.874Z,32.81
2023-05-21T09:33:50.109Z,32.94
2023-05-21T09:36:56.701Z,33.30
2023-05-21T09:39:59.277Z,33.31
2023-05-21T09:43:02.344Z,33.34
2023-05-21T09:46:05.396Z,33.46
2023-05-21T09:49:24.121Z,33.58
2023-05-21T09:52:28.259Z,33.84
2023-05-21T09:55:31.393Z,34.11
2023-05-21T09:58:34.562Z,34.21
2023-05-21T10:01:38.784Z,34.34
2023-05-21T10:04:42.451Z,34.48
2023-05-21T10:07:49.444Z,34.51
2023-05-21T10:10:52.072Z,34.49
2023-05-21T10:14:01.035Z,34.54
2023-05-21T10:17:05.261Z,34.55
2023-05-21T10:20:08.660Z,34.48
2023-05-21T10:23:13.041Z,34.62
2023-05-21T10:26:16.494Z,34.78
2023-05-21T10:29:19.897Z,34.76
2023-05-21T10:32:23.063Z,34.66
2023-05-21T10:35:25.981Z,34.51
2023-05-21T10:38:29.337Z,34.77
2023-05-21T10:41:35.891Z,34.25
2023-05-21T10:44:55.141Z,33.76
2023-05-21T10:48:16.630Z,33.84
2023-05-21T10:51:37.792Z,33.97
2023-05-21T10:54:59.143Z,34.42
2023-05-21T10:58:34.014Z,34.41
2023-05-21T11:01:38.158Z,34.34
2023-05-21T11:04:43.311Z,34.63
2023-05-21T11:08:02.498Z,34.66
2023-05-21T11:11:05.222Z,34.41
2023-05-21T11:14:26.867Z,33.75
2023-05-21T11:17:39.169Z,33.06
2023-05-21T11:20:44.894Z,32.67
2023-05-21T11:23:50.830Z,33.04
2023-05-21T11:26:58.658Z,32.86
2023-05-21T11:30:04.181Z,32.98
2023-05-21T11:33:11.312Z,33.26
2023-05-21T11:36:14.282Z,33.46
2023-05-21T11:39:21.928Z,33.37
2023-05-21T11:42:28.805Z,33.34
2023-05-21T11:45:32.869Z,33.15
2023-05-21T11:48:36.748Z,33.56
2023-05-21T11:51:40.450Z,33.57
2023-05-21T11:54:48.684Z,33.48
2023-05-21T11:57:53.023Z,33.28
2023-05-21T12:00:55.769Z,33.55
2023-05-21T12:03:58.606Z,33.03
2023-05-21T12:07:03.893Z,32.80
2023-05-21T12:10:06.898Z,32.81
2023-05-21T12:13:10.149Z,32.80
2023-05-21T12:16:13.019Z,32.83
2023-05-21T12:19:17.897Z,32.74
2023-05-21T12:22:21.462Z,32.65
2023-05-21T12:25:24.245Z,32.29
2023-05-21T12:28:27.280Z,31.73
2023-05-21T12:31:30.317Z,31.11
2023-05-21T12:34:45.752Z,30.64
2023-05-21T12:37:50.631Z,30.91
2023-05-21T12:40:53.392Z,31.31
2023-05-21T12:43:56.033Z,31.07
2023-05-21T12:47:00.032Z,30.95
2023-05-21T12:50:04.014Z,31.03
2023-05-21T12:53:09.102Z,31.09
2023-05-21T12:56:12.429Z,31.18
2023-05-21T12:59:17.756Z,30.88
2023-05-21T13:02:21.834Z,30.27
2023-05-21T13:05:24.575Z,30.03
2023-05-21T13:08:27.493Z,30.07
2023-05-21T13:11:30.243Z,30.00
2023-05-21T13:14:33.110Z,30.32
2023-05-21T13:17:35.998Z,30.54
2023-05-21T13:20:39.022Z,30.48
2023-05-21T13:23:41.911Z,30.14
2023-05-21T13:26:44.625Z,29.80
2023-05-21T13:29:47.221Z,29.86
2023-05-21T13:32:50.047Z,29.78
2023-05-21T13:35:52.944Z,29.95
2023-05-21T13:38:56.497Z,30.04
2023-05-21T13:41:59.320Z,30.10
2023-05-21T13:45:02.016Z,29.75
2023-05-21T13:48:05.205Z,29.67
2023-05-21T13:51:07.964Z,29.58
2023-05-21T13:54:11.006Z,29.53
2023-05-21T13:57:13.639Z,29.45
2023-05-21T14:00:16.503Z,29.17
2023-05-21T14:03:19.664Z,28.88
2023-05-21T14:06:22.431Z,28.55
2023-05-21T14:09:27.304Z,28.21
2023-05-21T14:12:29.780Z,28.22
2023-05-21T14:15:32.801Z,28.16
2023-05-21T14:18:35.370Z,28.22
2023-05-21T14:21:38.246Z,28.25
2023-05-21T14:24:40.777Z,28.17
2023-05-21T14:27:43.702Z,28.14
2023-05-21T14:30:46.188Z,28.17
2023-05-21T14:33:49.219Z,28.06
2023-05-21T14:36:51.547Z,27.91
2023-05-21T14:39:54.517Z,27.91
2023-05-21T14:42:56.817Z,27.77
2023-05-21T14:45:59.812Z,27.77
2023-05-21T14:49:03.692Z,27.79
2023-05-21T14:52:06.826Z,27.83
2023-05-21T14:55:10.955Z,27.62
2023-05-21T14:58:13.963Z,27.51
2023-05-21T15:01:16.416Z,27.37
2023-05-21T15:04:19.424Z,27.30
2023-05-21T15:07:21.797Z,27.26
2023-05-21T15:10:25.622Z,27.33
2023-05-21T15:13:28.134Z,27.34
2023-05-21T15:16:31.326Z,27.22
2023-05-21T15:19:33.796Z,27.23
2023-05-21T15:22:38.039Z,27.39
2023-05-21T15:25:40.433Z,27.30
2023-05-21T15:28:43.595Z,27.16
2023-05-21T15:31:46.011Z,27.18
2023-05-21T15:34:49.495Z,26.98
2023-05-21T15:37:51.922Z,26.86
2023-05-21T15:40:54.882Z,26.72
2023-05-21T15:43:57.279Z,26.65
2023-05-21T15:47:00.457Z,26.68
2023-05-21T15:50:02.915Z,26.56
2023-05-21T15:53:05.903Z,26.53
2023-05-21T15:56:09.155Z,26.46
2023-05-21T15:59:13.296Z,26.39
2023-05-21T16:02:15.726Z,26.52
2023-05-21T16:05:18.685Z,26.37
2023-05-21T16:08:21.405Z,26.29
2023-05-21T16:11:25.546Z,26.49
2023-05-21T16:14:29.400Z,26.25
2023-05-21T16:17:32.420Z,26.12
2023-05-21T16:20:35.462Z,26.07
2023-05-21T16:23:38.896Z,26.02
2023-05-21T16:26:41.210Z,26.01
2023-05-21T16:29:44.297Z,26.18
2023-05-21T16:32:46.741Z,26.01
2023-05-21T16:35:49.851Z,25.91
2023-05-21T16:38:52.275Z,25.83
2023-05-21T16:41:59.590Z,25.79
2023-05-21T16:45:02.105Z,25.79
2023-05-21T16:48:05.323Z,25.80
2023-05-21T16:51:07.696Z,25.78
2023-05-21T16:54:10.948Z,25.72
2023-05-21T16:57:13.373Z,25.64
2023-05-21T17:00:16.478Z,25.56
2023-05-21T17:03:18.983Z,25.50
2023-05-21T17:06:23.077Z,25.48
2023-05-21T17:09:25.449Z,25.41
2023-05-21T17:12:28.348Z,25.37
2023-05-21T17:15:31.084Z,25.33
2023-05-21T17:18:34.031Z,25.34
2023-05-21T17:21:38.813Z,25.26
2023-05-21T17:24:41.714Z,25.21
2023-05-21T17:27:44.038Z,25.18
2023-05-21T17:30:49.462Z,25.11
2023-05-21T17:33:52.223Z,25.05
2023-05-21T17:36:55.632Z,24.98
2023-05-21T17:39:57.956Z,24.92
2023-05-21T17:43:01.491Z,24.84
2023-05-21T17:46:03.867Z,24.81
2023-05-21T17:49:08.306Z,24.76
2023-05-21T17:52:10.750Z,24.73
2023-05-21T17:55:14.449Z,24.65
2023-05-21T17:58:17.000Z,24.56
2023-05-21T18:01:20.617Z,24.52
2023-05-21T18:04:23.518Z,24.45
2023-05-21T18:07:26.258Z,24.44
2023-05-21T18:10:29.515Z,24.39
2023-05-21T18:13:34.526Z,24.37
2023-05-21T18:16:37.457Z,24.32
2023-05-21T18:19:40.094Z,24.26
2023-05-21T18:22:43.515Z,24.23
2023-05-21T18:25:46.257Z,24.17
2023-05-21T18:28:49.809Z,24.16
2023-05-21T18:31:52.547Z,24.08
2023-05-21T18:34:56.555Z,23.98
2023-05-21T18:37:59.205Z,23.85
2023-05-21T18:41:03.440Z,23.74
2023-05-21T18:44:06.388Z,23.61
2023-05-21T18:47:09.237Z,23.50
2023-05-21T18:50:15.504Z,23.40
2023-05-21T18:53:18.328Z,23.34
2023-05-21T18:56:21.998Z,23.29
2023-05-21T18:59:24.637Z,23.22
2023-05-21T19:02:28.219Z,23.13
2023-05-21T19:05:31.088Z,23.10
2023-05-21T19:08:33.781Z,23.05
2023-05-21T19:11:37.515Z,22.99
2023-05-21T19:14:44.845Z,22.94
2023-05-21T19:17:47.613Z,22.88
2023-05-21T19:20:50.448Z,22.81
2023-05-21T19:23:54.054Z,22.73
2023-05-21T19:26:56.786Z,22.69
2023-05-21T19:29:59.391Z,22.66
2023-05-21T19:33:02.120Z,22.59
2023-05-21T19:36:04.936Z,22.52
2023-05-21T19:39:09.051Z,22.48
2023-05-21T19:42:11.877Z,22.42
2023-05-21T19:45:15.661Z,22.36
2023-05-21T19:48:18.330Z,22.34
2023-05-21T19:51:21.320Z,22.29
2023-05-21T19:54:24.304Z,22.26
2023-05-21T19:57:26.960Z,22.29
2023-05-21T20:00:29.568Z,22.28
2023-05-21T20:03:35.984Z,22.24
2023-05-21T20:06:38.869Z,22.21
2023-05-21T20:09:42.328Z,22.15
2023-05-21T20:12:44.631Z,22.08
2023-05-21T20:15:50.476Z,22.04
2023-05-21T20:18:56.934Z,22.00
2023-05-21T20:21:59.953Z,21.96
2023-05-21T20:25:03.910Z,21.91
2023-05-21T20:28:08.493Z,21.87
2023-05-21T20:31:11.560Z,21.84
2023-05-21T20:34:17.786Z,21.81
2023-05-21T20:37:21.760Z,21.78
2023-05-21T20:40:24.847Z,21.76
2023-05-21T20:43:27.213Z,21.72
2023-05-21T20:46:31.464Z,21.69
2023-05-21T20:49:34.083Z,21.64
2023-05-21T20:52:37.472Z,21.62
2023-05-21T20:55:44.456Z,21.62
2023-05-21T20:58:48.999Z,21.61
2023-05-21T21:01:52.605Z,21.62
2023-05-21T21:04:56.259Z,21.65
2023-05-21T21:08:02.652Z,21.65
2023-05-21T21:11:06.078Z,21.63
2023-05-21T21:14:08.741Z,21.65
2023-05-21T21:17:11.669Z,21.65
2023-05-21T21:20:17.313Z,21.64
2023-05-21T21:23:20.591Z,21.62
2023-05-21T21:26:22.991Z,21.61
2023-05-21T21:29:25.902Z,21.59
2023-05-21T21:32:28.367Z,21.57
2023-05-21T21:35:31.320Z,21.55
2023-05-21T21:38:33.819Z,21.53
2023-05-21T21:41:36.769Z,21.52
2023-05-21T21:44:39.396Z,21.58
2023-05-21T21:47:42.474Z,21.55
2023-05-21T21:50:44.926Z,21.46
2023-05-21T21:53:48.207Z,21.42
2023-05-21T21:56:50.773Z,21.46
2023-05-21T21:59:53.681Z,21.45
2023-05-21T22:02:56.864Z,21.34
2023-05-21T22:05:59.987Z,21.21
2023-05-21T22:09:02.334Z,21.11
2023-05-21T22:12:07.769Z,21.08
2023-05-21T22:15:17.989Z,21.06
2023-05-21T22:18:28.419Z,21.02
2023-05-21T22:21:38.664Z,21.05
2023-05-21T22:24:41.554Z,20.99
2023-05-21T22:27:43.935Z,20.92
2023-05-21T22:30:46.968Z,20.86
2023-05-21T22:33:49.737Z,20.90
2023-05-21T22:36:52.789Z,20.83
2023-05-21T22:39:55.357Z,20.79
2023-05-21T22:42:58.339Z,20.75
2023-05-21T22:46:01.832Z,20.72
2023-05-21T22:49:04.808Z,20.68
2023-05-21T22:52:09.099Z,20.65
2023-05-21T22:55:12.295Z,20.63
2023-05-21T22:58:14.606Z,20.62
2023-05-21T23:01:17.543Z,20.61
2023-05-21T23:04:28.905Z,20.67
2023-05-21T23:07:35.513Z,20.62
2023-05-21T23:10:38.122Z,20.52
2023-05-21T23:13:41.273Z,20.47
2023-05-21T23:16:44.039Z,20.45
2023-05-21T23:19:49.924Z,20.43
2023-05-21T23:22:52.679Z,20.41
2023-05-21T23:25:57.717Z,20.40
2023-05-21T23:29:00.666Z,20.37
2023-05-21T23:32:05.221Z,20.35
2023-05-21T23:35:09.308Z,20.30
2023-05-21T23:38:12.238Z,20.29
2023-05-21T23:41:14.670Z,20.28
2023-05-21T23:44:18.589Z,20.25
2023-05-21T23:47:20.921Z,20.21
2023-05-21T23:50:24.475Z,20.18
2023-05-21T23:53:26.953Z,20.17
2023-05-21T23:56:30.207Z,20.15
2023-05-21T23:59:32.611Z,20.13
